createdAt,value
2018-01-14T00:00:25.009Z,1.13
2018-01-14T00:01:24.561Z,1.13
2018-01-14T00:02:24.324Z,1.09
2018-01-14T00:03:24.266Z,1.05
2018-01-14T00:04:24.605Z,1.04
2018-01-14T00:05:24.442Z,1.04
2018-01-14T00:06:24.372Z,1.03
2018-01-14T00:07:24.514Z,1.11
2018-01-14T00:08:24.583Z,1.01
2018-01-14T00:09:25.141Z,1
2018-01-14T00:10:24.600Z,0.99
2018-01-14T00:11:24.312Z,1.03
2018-01-14T00:12:24.516Z,1.06
2018-01-14T00:13:24.233Z,1
2018-01-14T00:14:24.786Z,1.01
2018-01-14T00:15:24.590Z,0.98
2018-01-14T00:16:24.616Z,0.98
2018-01-14T00:17:24.938Z,0.96
2018-01-14T00:18:24.971Z,0.95
2018-01-14T00:19:24.813Z,0.95
2018-01-14T00:20:24.468Z,0.9
2018-01-14T00:21:25.004Z,0.88
2018-01-14T00:22:24.605Z,0.92
2018-01-14T00:23:24.541Z,0.95
2018-01-14T00:24:24.444Z,0.9
2018-01-14T00:25:25.761Z,0.91
2018-01-14T00:26:25.041Z,0.93
2018-01-14T00:27:25.378Z,0.95
2018-01-14T00:28:24.270Z,0.97
2018-01-14T00:29:24.860Z,0.97
2018-01-14T00:30:24.493Z,0.97
2018-01-14T00:31:24.555Z,0.92
2018-01-14T00:32:24.611Z,0.95
2018-01-14T00:33:24.793Z,0.9
2018-01-14T00:34:24.726Z,0.94
2018-01-14T00:35:25.009Z,0.96
2018-01-14T00:36:24.812Z,0.97
2018-01-14T00:37:25.164Z,0.94
2018-01-14T00:38:25.326Z,0.94
2018-01-14T00:39:24.864Z,0.98
2018-01-14T00:40:24.937Z,1
2018-01-14T00:41:24.853Z,1.03
2018-01-14T00:42:24.764Z,1.1
2018-01-14T00:43:24.705Z,1
2018-01-14T00:44:24.417Z,1.02
2018-01-14T00:45:24.642Z,0.99
2018-01-14T00:46:24.970Z,1.01
2018-01-14T00:47:24.892Z,0.97
2018-01-14T00:48:25.017Z,0.99
2018-01-14T00:49:25.327Z,0.98
2018-01-14T00:50:24.763Z,1
2018-01-14T00:51:24.802Z,0.99
2018-01-14T00:52:25.090Z,1
2018-01-14T00:53:24.800Z,0.98
2018-01-14T00:54:24.866Z,0.99
2018-01-14T00:55:24.744Z,0.98
2018-01-14T00:56:25.073Z,0.97
2018-01-14T00:57:24.624Z,0.97
2018-01-14T00:58:24.706Z,1.04
2018-01-14T00:59:25.216Z,0.96
2018-01-14T01:00:24.966Z,0.99
2018-01-14T01:01:24.793Z,0.97
2018-01-14T01:02:24.761Z,0.94
2018-01-14T01:03:24.771Z,0.95
2018-01-14T01:04:24.596Z,0.95
2018-01-14T01:05:24.396Z,0.93
2018-01-14T01:06:24.864Z,0.95
2018-01-14T01:07:24.915Z,0.95
2018-01-14T01:08:24.830Z,0.95
2018-01-14T01:09:24.623Z,0.98
2018-01-14T01:10:24.753Z,0.97
2018-01-14T01:11:24.863Z,0.95
2018-01-14T01:12:24.710Z,0.96
2018-01-14T01:13:25.805Z,0.96
2018-01-14T01:14:25.317Z,0.95
2018-01-14T01:15:24.890Z,0.99
2018-01-14T01:16:24.611Z,1
2018-01-14T01:17:24.813Z,0.95
2018-01-14T01:18:24.206Z,0.97
2018-01-14T01:19:25.086Z,0.97
2018-01-14T01:20:24.616Z,0.93
2018-01-14T01:21:25.304Z,0.92
2018-01-14T01:22:24.905Z,0.95
2018-01-14T01:23:24.728Z,0.99
2018-01-14T01:24:25.237Z,0.96
2018-01-14T01:25:24.702Z,0.97
2018-01-14T01:26:24.863Z,0.93
2018-01-14T01:27:25.191Z,0.93
2018-01-14T01:28:24.381Z,0.96
2018-01-14T01:29:24.717Z,0.97
2018-01-14T01:30:24.792Z,0.95
2018-01-14T01:31:24.942Z,0.95
2018-01-14T01:32:24.862Z,0.93
2018-01-14T01:33:24.887Z,0.93
2018-01-14T01:34:25.328Z,0.93
2018-01-14T01:35:24.811Z,0.92
2018-01-14T01:36:25.051Z,0.92
2018-01-14T01:37:24.694Z,0.97
2018-01-14T01:38:25.219Z,0.93
2018-01-14T01:39:24.541Z,0.91
2018-01-14T01:40:24.730Z,0.91
2018-01-14T01:41:24.768Z,0.93
2018-01-14T01:42:24.673Z,0.91
2018-01-14T01:43:24.889Z,0.89
2018-01-14T01:44:24.868Z,0.91
2018-01-14T01:45:24.878Z,0.9
2018-01-14T01:46:24.987Z,0.91
2018-01-14T01:47:24.824Z,0.9
2018-01-14T01:48:25.245Z,0.88
2018-01-14T01:49:24.884Z,0.88
2018-01-14T01:50:24.455Z,0.92
2018-01-14T01:51:25.877Z,0.96
2018-01-14T01:52:24.745Z,0.92
2018-01-14T01:53:24.317Z,0.9
2018-01-14T01:54:25.258Z,0.89
2018-01-14T01:55:24.452Z,0.9
2018-01-14T01:56:25.826Z,0.93
2018-01-14T01:57:25.167Z,0.89
2018-01-14T01:58:24.828Z,0.88
2018-01-14T01:59:25.103Z,0.9
2018-01-14T02:00:24.665Z,0.9
2018-01-14T02:01:24.869Z,0.89
2018-01-14T02:02:24.591Z,0.86
2018-01-14T02:03:25.256Z,0.86
2018-01-14T02:04:24.962Z,0.86
2018-01-14T02:05:24.876Z,0.88
2018-01-14T02:06:24.346Z,0.86
2018-01-14T02:07:24.435Z,0.84
2018-01-14T02:08:25.140Z,0.88
2018-01-14T02:09:25.073Z,0.89
2018-01-14T02:10:24.529Z,0.84
2018-01-14T02:11:24.856Z,0.85
2018-01-14T02:12:24.424Z,0.85
2018-01-14T02:13:24.449Z,0.85
2018-01-14T02:14:25.835Z,0.84
2018-01-14T02:15:24.510Z,0.81
2018-01-14T02:16:24.390Z,0.81
2018-01-14T02:17:24.946Z,0.81
2018-01-14T02:18:25.009Z,0.81
2018-01-14T02:19:25.140Z,0.8
2018-01-14T02:20:25.245Z,0.78
2018-01-14T02:21:25.087Z,0.78
2018-01-14T02:22:24.853Z,0.77
2018-01-14T02:23:25.372Z,0.78
2018-01-14T02:24:25.001Z,0.81
2018-01-14T02:25:24.604Z,0.81
2018-01-14T02:26:25.167Z,0.77
2018-01-14T02:27:25.366Z,0.74
2018-01-14T02:28:24.744Z,0.72
2018-01-14T02:29:24.440Z,0.72
2018-01-14T02:30:25.389Z,0.74
2018-01-14T02:31:24.756Z,0.75
2018-01-14T02:32:24.782Z,0.72
2018-01-14T02:35:24.271Z,0.7
2018-01-14T02:36:24.961Z,0.67
2018-01-14T02:37:25.653Z,0.69
2018-01-14T02:38:23.955Z,0.74
2018-01-14T02:39:23.765Z,0.71
2018-01-14T02:40:24.018Z,0.71
2018-01-14T02:41:23.823Z,0.7
2018-01-14T02:42:23.716Z,0.72
2018-01-14T02:43:23.652Z,0.74
2018-01-14T02:44:23.763Z,0.72
2018-01-14T02:45:24.643Z,0.73
2018-01-14T02:46:23.751Z,0.71
2018-01-14T02:47:24.742Z,0.71
2018-01-14T02:48:24.211Z,0.71
2018-01-14T02:49:23.910Z,0.73
2018-01-14T02:50:23.636Z,0.74
2018-01-14T02:51:23.894Z,0.73
2018-01-14T02:52:23.837Z,0.72
2018-01-14T02:53:23.974Z,0.71
2018-01-14T02:54:24.588Z,0.74
2018-01-14T02:55:23.961Z,0.71
2018-01-14T02:56:23.697Z,0.7
2018-01-14T02:57:24.210Z,0.71
2018-01-14T02:58:24.247Z,0.71
2018-01-14T02:59:24.090Z,0.69
2018-01-14T03:00:24.815Z,0.7
2018-01-14T03:01:23.892Z,0.69
2018-01-14T03:02:23.950Z,0.68
2018-01-14T03:03:23.656Z,0.7
2018-01-14T03:04:23.800Z,0.67
2018-01-14T03:05:24.704Z,0.67
2018-01-14T03:06:24.507Z,0.65
2018-01-14T03:07:23.807Z,0.67
2018-01-14T03:08:23.769Z,0.69
2018-01-14T03:09:23.652Z,0.64
2018-01-14T03:10:24.199Z,0.65
2018-01-14T03:11:23.880Z,0.67
2018-01-14T03:12:23.855Z,0.69
2018-01-14T03:13:23.870Z,0.68
2018-01-14T03:14:24.971Z,0.68
2018-01-14T03:15:24.204Z,0.67
2018-01-14T03:16:24.064Z,0.66
2018-01-14T03:17:24.068Z,0.69
2018-01-14T03:18:25.388Z,0.68
2018-01-14T03:19:23.926Z,0.68
2018-01-14T03:20:24.593Z,0.7
2018-01-14T03:21:24.168Z,0.64
2018-01-14T03:22:24.062Z,0.65
2018-01-14T03:23:24.652Z,0.66
2018-01-14T03:24:23.780Z,0.65
2018-01-14T03:25:24.399Z,0.64
2018-01-14T03:26:24.500Z,0.62
2018-01-14T03:27:23.935Z,0.61
2018-01-14T03:28:24.170Z,0.6
2018-01-14T03:29:23.950Z,0.62
2018-01-14T03:30:23.982Z,0.59
2018-01-14T03:31:24.114Z,0.61
2018-01-14T03:32:24.006Z,0.61
2018-01-14T03:33:23.773Z,0.61
2018-01-14T03:34:23.927Z,0.57
2018-01-14T03:35:24.044Z,0.59
2018-01-14T03:36:23.966Z,0.61
2018-01-14T03:37:24.387Z,0.63
2018-01-14T03:38:23.988Z,0.66
2018-01-14T03:39:24.206Z,0.63
2018-01-14T03:40:24.075Z,0.62
2018-01-14T03:41:23.894Z,0.57
2018-01-14T03:42:23.935Z,0.61
2018-01-14T03:43:24.014Z,0.61
2018-01-14T03:44:24.273Z,0.55
2018-01-14T03:45:24.505Z,0.57
2018-01-14T03:46:24.827Z,0.58
2018-01-14T03:47:25.099Z,0.56
2018-01-14T03:48:24.910Z,0.58
2018-01-14T03:49:24.940Z,0.56
2018-01-14T03:50:24.279Z,0.56
2018-01-14T03:51:23.965Z,0.56
2018-01-14T03:52:24.108Z,0.53
2018-01-14T03:53:24.054Z,0.58
2018-01-14T03:54:24.675Z,0.52
2018-01-14T03:55:23.731Z,0.53
2018-01-14T03:56:24.922Z,0.52
2018-01-14T03:57:24.143Z,0.51
2018-01-14T03:58:24.429Z,0.47
2018-01-14T03:59:24.227Z,0.5
2018-01-14T04:00:24.800Z,0.46
2018-01-14T04:01:23.944Z,0.48
2018-01-14T04:02:24.304Z,0.48
2018-01-14T04:03:24.330Z,0.51
2018-01-14T04:04:23.982Z,0.47
2018-01-14T04:05:23.929Z,0.48
2018-01-14T04:06:24.092Z,0.5
2018-01-14T04:07:24.398Z,0.48
2018-01-14T04:08:24.014Z,0.47
2018-01-14T04:09:24.031Z,0.46
2018-01-14T04:10:23.937Z,0.51
2018-01-14T04:11:23.772Z,0.45
2018-01-14T04:12:23.918Z,0.45
2018-01-14T04:13:24.470Z,0.45
2018-01-14T04:14:23.896Z,0.45
2018-01-14T04:15:24.527Z,0.45
2018-01-14T04:16:23.949Z,0.44
2018-01-14T04:17:23.867Z,0.47
2018-01-14T04:18:23.937Z,0.47
2018-01-14T04:19:23.810Z,0.44
2018-01-14T04:20:23.818Z,0.43
2018-01-14T04:21:24.059Z,0.43
2018-01-14T04:22:23.892Z,0.44
2018-01-14T04:23:23.958Z,0.41
2018-01-14T04:24:23.919Z,0.45
2018-01-14T04:25:23.837Z,0.4
2018-01-14T04:26:23.883Z,0.44
2018-01-14T04:27:23.985Z,0.43
2018-01-14T04:28:23.945Z,0.46
2018-01-14T04:29:23.972Z,0.46
2018-01-14T04:30:23.962Z,0.41
2018-01-14T04:31:23.844Z,0.41
2018-01-14T04:32:23.882Z,0.39
2018-01-14T04:33:24.086Z,0.39
2018-01-14T04:34:24.020Z,0.39
2018-01-14T04:35:23.941Z,0.4
2018-01-14T04:36:24.064Z,0.38
2018-01-14T04:37:23.955Z,0.37
2018-01-14T04:38:23.929Z,0.36
2018-01-14T04:39:23.855Z,0.4
2018-01-14T04:40:23.883Z,0.43
2018-01-14T04:41:23.991Z,0.42
2018-01-14T04:42:23.857Z,0.36
2018-01-14T04:43:24.070Z,0.35
2018-01-14T04:44:24.002Z,0.37
2018-01-14T04:45:23.928Z,0.37
2018-01-14T04:46:23.992Z,0.34
2018-01-14T04:47:23.977Z,0.31
2018-01-14T04:48:24.031Z,0.32
2018-01-14T04:49:24.027Z,0.33
2018-01-14T04:50:23.919Z,0.3
2018-01-14T04:51:23.961Z,0.32
2018-01-14T04:52:24.024Z,0.35
2018-01-14T04:53:23.970Z,0.33
2018-01-14T04:54:23.902Z,0.31
2018-01-14T04:55:24.019Z,0.32
2018-01-14T04:56:23.880Z,0.32
2018-01-14T04:57:23.968Z,0.32
2018-01-14T04:58:23.952Z,0.32
2018-01-14T04:59:23.933Z,0.3
2018-01-14T05:00:23.948Z,0.29
2018-01-14T05:01:24.018Z,0.3
2018-01-14T05:02:24.023Z,0.33
2018-01-14T05:03:24.011Z,0.33
2018-01-14T05:04:23.993Z,0.35
2018-01-14T05:05:24.070Z,0.33
2018-01-14T05:06:24.040Z,0.33
2018-01-14T05:07:23.867Z,0.3
2018-01-14T05:08:23.815Z,0.35
2018-01-14T05:09:23.924Z,0.34
2018-01-14T05:10:24.000Z,0.33
2018-01-14T05:11:23.953Z,0.3
2018-01-14T05:12:23.962Z,0.31
2018-01-14T05:13:23.901Z,0.34
2018-01-14T05:14:23.925Z,0.33
2018-01-14T05:15:24.192Z,0.32
2018-01-14T05:16:23.979Z,0.34
2018-01-14T05:17:24.122Z,0.38
2018-01-14T05:18:24.101Z,0.34
2018-01-14T05:19:23.950Z,0.35
2018-01-14T05:20:23.901Z,0.37
2018-01-14T05:21:24.049Z,0.36
2018-01-14T05:22:24.094Z,0.41
2018-01-14T05:23:24.116Z,0.36
2018-01-14T05:24:24.050Z,0.32
2018-01-14T05:25:24.032Z,0.34
2018-01-14T05:26:23.938Z,0.34
2018-01-14T05:27:24.058Z,0.36
2018-01-14T05:28:24.142Z,0.35
2018-01-14T05:29:24.011Z,0.35
2018-01-14T05:30:24.024Z,0.33
2018-01-14T05:31:24.014Z,0.3
2018-01-14T05:32:24.026Z,0.29
2018-01-14T05:33:24.101Z,0.31
2018-01-14T05:34:24.119Z,0.32
2018-01-14T05:35:23.944Z,0.34
2018-01-14T05:36:23.937Z,0.33
2018-01-14T05:37:24.071Z,0.33
2018-01-14T05:38:24.087Z,0.35
2018-01-14T05:39:24.097Z,0.3
2018-01-14T05:40:24.080Z,0.32
2018-01-14T05:41:24.070Z,0.28
2018-01-14T05:42:24.105Z,0.3
2018-01-14T05:43:24.021Z,0.34
2018-01-14T05:44:23.986Z,0.32
2018-01-14T05:45:24.104Z,0.29
2018-01-14T05:46:24.055Z,0.3
2018-01-14T05:47:24.036Z,0.25
2018-01-14T05:48:24.067Z,0.31
2018-01-14T05:49:24.109Z,0.32
2018-01-14T05:50:24.174Z,0.34
2018-01-14T05:51:24.066Z,0.32
2018-01-14T05:52:24.130Z,0.29
2018-01-14T05:53:24.193Z,0.29
2018-01-14T05:54:24.024Z,0.28
2018-01-14T05:55:24.018Z,0.32
2018-01-14T05:56:24.200Z,0.27
2018-01-14T05:57:24.013Z,0.28
2018-01-14T05:58:24.062Z,0.28
2018-01-14T05:59:24.269Z,0.27
2018-01-14T06:00:24.088Z,0.31
2018-01-14T06:01:24.066Z,0.29
2018-01-14T06:02:24.611Z,0.32
2018-01-14T06:03:24.013Z,0.3
2018-01-14T06:04:24.014Z,0.27
2018-01-14T06:05:24.418Z,0.3
2018-01-14T06:06:24.084Z,0.25
2018-01-14T06:07:24.004Z,0.23
2018-01-14T06:08:24.178Z,0.21
2018-01-14T06:09:24.073Z,0.2
2018-01-14T06:10:24.055Z,0.25
2018-01-14T06:11:24.114Z,0.24
2018-01-14T06:12:24.052Z,0.25
2018-01-14T06:13:24.126Z,0.25
2018-01-14T06:14:24.018Z,0.25
2018-01-14T06:15:24.176Z,0.23
2018-01-14T06:16:24.066Z,0.24
2018-01-14T06:17:24.054Z,0.18
2018-01-14T06:18:24.195Z,0.2
2018-01-14T06:19:24.075Z,0.19
2018-01-14T06:20:24.058Z,0.29
2018-01-14T06:21:24.141Z,0.25
2018-01-14T06:22:24.246Z,0.18
2018-01-14T06:23:24.139Z,0.16
2018-01-14T06:24:24.143Z,0.22
2018-01-14T06:25:24.166Z,0.23
2018-01-14T06:26:24.114Z,0.23
2018-01-14T06:27:24.168Z,0.22
2018-01-14T06:28:24.189Z,0.22
2018-01-14T06:29:24.285Z,0.17
2018-01-14T06:30:24.058Z,0.18
2018-01-14T06:31:24.108Z,0.21
2018-01-14T06:32:24.154Z,0.13
2018-01-14T06:33:24.047Z,0.17
2018-01-14T06:34:24.029Z,0.18
2018-01-14T06:35:24.148Z,0.13
2018-01-14T06:36:24.053Z,0.15
2018-01-14T06:37:24.193Z,0.1
2018-01-14T06:38:24.177Z,0.14
2018-01-14T06:39:24.151Z,0.18
2018-01-14T06:40:24.055Z,0.18
2018-01-14T06:41:24.060Z,0.25
2018-01-14T06:42:24.223Z,0.15
2018-01-14T06:43:24.719Z,0.16
2018-01-14T06:44:24.171Z,0.15
2018-01-14T06:45:24.189Z,0.18
2018-01-14T06:46:24.141Z,0.16
2018-01-14T06:47:24.230Z,0.2
2018-01-14T06:48:24.152Z,0.15
2018-01-14T06:49:24.166Z,0.15
2018-01-14T06:50:24.195Z,0.19
2018-01-14T06:51:24.266Z,0.19
2018-01-14T06:52:24.194Z,0.18
2018-01-14T06:53:24.126Z,0.16
2018-01-14T06:54:24.146Z,0.19
2018-01-14T06:55:24.125Z,0.12
2018-01-14T06:56:24.175Z,0.14
2018-01-14T06:57:24.132Z,0.15
2018-01-14T06:58:24.100Z,0.12
2018-01-14T06:59:24.222Z,0.13
2018-01-14T07:00:24.330Z,0.11
2018-01-14T07:01:24.272Z,0.11
2018-01-14T07:02:24.179Z,0.13
2018-01-14T07:03:24.212Z,0.1
2018-01-14T07:04:24.153Z,0.09
2018-01-14T07:05:24.202Z,0.14
2018-01-14T07:06:24.257Z,0.12
2018-01-14T07:07:24.248Z,0.08
2018-01-14T07:08:24.194Z,0.05
2018-01-14T07:09:24.174Z,0.06
2018-01-14T07:10:24.246Z,0.11
2018-01-14T07:11:24.307Z,0.07
2018-01-14T07:12:24.249Z,0.08
2018-01-14T07:13:24.243Z,0.07
2018-01-14T07:14:24.107Z,0.12
2018-01-14T07:15:24.511Z,0.05
2018-01-14T07:16:24.340Z,0.07
2018-01-14T07:17:24.311Z,0.07
2018-01-14T07:18:24.348Z,0.03
2018-01-14T07:19:24.379Z,0.03
2018-01-14T07:20:24.254Z,-0.03
2018-01-14T07:21:24.243Z,-0.03
2018-01-14T07:22:24.314Z,-0.01
2018-01-14T07:23:24.225Z,-0.03
2018-01-14T07:24:24.307Z,-0.02
2018-01-14T07:25:24.785Z,-0.02
2018-01-14T07:26:24.224Z,-0.01
2018-01-14T07:27:24.353Z,0.01
2018-01-14T07:28:24.319Z,-0.06
2018-01-14T07:29:24.338Z,0
2018-01-14T07:30:24.191Z,0.03
2018-01-14T07:31:24.416Z,-0.01
2018-01-14T07:32:24.219Z,-0.02
2018-01-14T07:33:24.288Z,-0.02
2018-01-14T07:34:24.412Z,-0.03
2018-01-14T07:35:24.277Z,-0.03
2018-01-14T07:36:24.232Z,-0.02
2018-01-14T07:37:24.264Z,-0.04
2018-01-14T07:38:24.408Z,-0.05
2018-01-14T07:39:24.299Z,-0.04
2018-01-14T07:40:24.208Z,-0.03
2018-01-14T07:41:24.216Z,-0.03
2018-01-14T07:42:24.388Z,0.08
2018-01-14T07:43:24.402Z,0
2018-01-14T07:44:24.177Z,-0.04
2018-01-14T07:45:24.466Z,-0.04
2018-01-14T07:46:24.448Z,-0.03
2018-01-14T07:47:24.399Z,-0.06
2018-01-14T07:48:24.428Z,-0.09
2018-01-14T07:49:24.374Z,-0.08
2018-01-14T07:50:24.312Z,-0.07
2018-01-14T07:51:24.306Z,-0.09
2018-01-14T07:52:24.604Z,-0.11
2018-01-14T07:53:24.340Z,-0.2
2018-01-14T07:54:24.533Z,-0.2
2018-01-14T07:55:24.412Z,-0.2
2018-01-14T07:56:24.355Z,-0.16
2018-01-14T07:57:24.358Z,-0.17
2018-01-14T07:58:24.737Z,-0.27
2018-01-14T07:59:24.564Z,-0.27
2018-01-14T08:00:24.469Z,-0.25
2018-01-14T08:01:24.345Z,-0.24
2018-01-14T08:02:24.411Z,-0.21
2018-01-14T08:03:24.362Z,-0.21
2018-01-14T08:04:24.310Z,-0.21
2018-01-14T08:05:24.489Z,-0.23
2018-01-14T08:06:24.435Z,-0.21
2018-01-14T08:07:24.409Z,-0.17
2018-01-14T08:08:24.520Z,-0.25
2018-01-14T08:09:24.311Z,-0.26
2018-01-14T08:10:24.408Z,-0.24
2018-01-14T08:11:24.495Z,-0.2
2018-01-14T08:12:24.382Z,-0.23
2018-01-14T08:13:24.300Z,-0.2
2018-01-14T08:14:24.446Z,-0.24
2018-01-14T08:15:24.546Z,-0.34
2018-01-14T08:16:23.451Z,-0.28
2018-01-14T08:17:23.487Z,-0.35
2018-01-14T08:18:23.527Z,-0.31
2018-01-14T08:19:23.596Z,-0.27
2018-01-14T08:20:23.818Z,-0.41
2018-01-14T08:21:23.758Z,-0.38
2018-01-14T08:22:23.474Z,-0.39
2018-01-14T08:23:23.525Z,-0.39
2018-01-14T08:24:23.689Z,-0.37
2018-01-14T08:25:23.548Z,-0.4
2018-01-14T08:26:23.369Z,-0.36
2018-01-14T08:27:23.605Z,-0.38
2018-01-14T08:28:23.422Z,-0.44
2018-01-14T08:29:23.543Z,-0.4
2018-01-14T08:30:23.380Z,-0.44
2018-01-14T08:31:23.455Z,-0.43
2018-01-14T08:32:23.464Z,-0.31
2018-01-14T08:33:23.519Z,-0.41
2018-01-14T08:34:23.365Z,-0.42
2018-01-14T08:35:23.709Z,-0.43
2018-01-14T08:36:23.437Z,-0.41
2018-01-14T08:37:23.467Z,-0.45
2018-01-14T08:38:23.376Z,-0.42
2018-01-14T08:39:23.456Z,-0.42
2018-01-14T08:40:23.416Z,-0.43
2018-01-14T08:41:23.468Z,-0.52
2018-01-14T08:42:23.519Z,-0.5
2018-01-14T08:43:23.443Z,-0.49
2018-01-14T08:44:23.405Z,-0.49
2018-01-14T08:45:23.536Z,-0.49
2018-01-14T08:46:23.516Z,-0.41
2018-01-14T08:47:23.602Z,-0.55
2018-01-14T08:48:23.469Z,-0.48
2018-01-14T08:49:23.487Z,-0.5
2018-01-14T08:50:23.597Z,-0.52
2018-01-14T08:51:23.420Z,-0.55
2018-01-14T08:52:23.645Z,-0.49
2018-01-14T08:53:23.574Z,-0.6
2018-01-14T08:54:23.591Z,-0.55
2018-01-14T08:55:23.480Z,-0.58
2018-01-14T08:56:23.456Z,-0.58
2018-01-14T08:57:23.506Z,-0.51
2018-01-14T08:58:24.032Z,-0.56
2018-01-14T08:59:23.567Z,-0.52
2018-01-14T09:00:23.505Z,-0.49
2018-01-14T09:01:23.553Z,-0.48
2018-01-14T09:02:23.525Z,-0.53
2018-01-14T09:03:23.424Z,-0.49
2018-01-14T09:04:23.477Z,-0.51
2018-01-14T09:05:23.492Z,-0.51
2018-01-14T09:06:23.471Z,-0.62
2018-01-14T09:07:23.603Z,-0.59
2018-01-14T09:08:23.465Z,-0.55
2018-01-14T09:09:23.521Z,-0.61
2018-01-14T09:10:23.541Z,-0.62
2018-01-14T09:11:23.675Z,-0.65
2018-01-14T09:12:23.617Z,-0.63
2018-01-14T09:13:23.539Z,-0.63
2018-01-14T09:14:23.477Z,-0.62
2018-01-14T09:15:23.831Z,-0.68
2018-01-14T09:16:23.540Z,-0.68
2018-01-14T09:17:23.661Z,-0.67
2018-01-14T09:18:23.520Z,-0.65
2018-01-14T09:19:23.514Z,-0.62
2018-01-14T09:20:23.614Z,-0.67
2018-01-14T09:21:23.491Z,-0.59
2018-01-14T09:22:23.501Z,-0.67
2018-01-14T09:23:23.593Z,-0.62
2018-01-14T09:24:23.586Z,-0.64
2018-01-14T09:25:23.542Z,-0.67
2018-01-14T09:26:23.614Z,-0.65
2018-01-14T09:27:23.694Z,-0.68
2018-01-14T09:28:23.698Z,-0.71
2018-01-14T09:29:23.657Z,-0.66
2018-01-14T09:30:23.622Z,-0.65
2018-01-14T09:31:23.528Z,-0.68
2018-01-14T09:32:23.789Z,-0.69
2018-01-14T09:33:23.532Z,-0.67
2018-01-14T09:34:23.662Z,-0.76
2018-01-14T09:35:23.491Z,-0.73
2018-01-14T09:36:23.621Z,-0.73
2018-01-14T09:37:23.546Z,-0.68
2018-01-14T09:38:23.994Z,-0.63
2018-01-14T09:39:23.444Z,-0.64
2018-01-14T09:40:23.749Z,-0.66
2018-01-14T09:41:23.705Z,-0.82
2018-01-14T09:42:23.559Z,-0.81
2018-01-14T09:43:23.842Z,-0.76
2018-01-14T09:44:23.615Z,-0.84
2018-01-14T09:45:23.609Z,-0.83
2018-01-14T09:46:23.689Z,-0.78
2018-01-14T09:47:23.684Z,-0.79
2018-01-14T09:48:23.640Z,-0.72
2018-01-14T09:49:23.702Z,-0.71
2018-01-14T09:50:23.555Z,-0.84
2018-01-14T09:51:23.700Z,-0.78
2018-01-14T09:52:23.655Z,-0.71
2018-01-14T09:53:23.640Z,-0.7
2018-01-14T09:54:23.664Z,-0.7
2018-01-14T09:55:23.639Z,-0.76
2018-01-14T09:56:23.730Z,-0.79
2018-01-14T09:57:23.882Z,-0.78
2018-01-14T09:58:23.637Z,-0.66
2018-01-14T09:59:23.844Z,-0.69
2018-01-14T10:00:23.805Z,-0.66
2018-01-14T10:01:23.809Z,-0.81
2018-01-14T10:02:23.592Z,-0.84
2018-01-14T10:03:23.703Z,-0.84
2018-01-14T10:04:23.752Z,-0.88
2018-01-14T10:05:23.854Z,-0.76
2018-01-14T10:06:23.661Z,-0.66
2018-01-14T10:07:23.750Z,-0.71
2018-01-14T10:08:23.705Z,-0.69
2018-01-14T10:09:24.035Z,-0.64
2018-01-14T10:10:23.758Z,-0.67
2018-01-14T10:11:23.703Z,-0.67
2018-01-14T10:12:23.768Z,-0.67
2018-01-14T10:13:23.750Z,-0.71
2018-01-14T10:14:23.764Z,-0.82
2018-01-14T10:15:23.642Z,-0.82
2018-01-14T10:16:23.741Z,-0.81
2018-01-14T10:17:23.649Z,-0.77
2018-01-14T10:18:23.553Z,-0.75
2018-01-14T10:19:23.557Z,-0.76
2018-01-14T10:20:23.789Z,-0.78
2018-01-14T10:21:23.739Z,-0.81
2018-01-14T10:22:23.544Z,-0.85
2018-01-14T10:23:23.730Z,-0.76
2018-01-14T10:24:23.632Z,-0.77
2018-01-14T10:25:23.973Z,-0.7
2018-01-14T10:26:24.429Z,-0.77
2018-01-14T10:27:23.718Z,-0.81
2018-01-14T10:28:23.634Z,-0.81
2018-01-14T10:29:23.653Z,-0.71
2018-01-14T10:30:23.580Z,-0.62
2018-01-14T10:31:23.773Z,-0.71
2018-01-14T10:32:23.712Z,-0.8
2018-01-14T10:33:23.773Z,-0.83
2018-01-14T10:34:23.687Z,-0.82
2018-01-14T10:35:23.676Z,-0.69
2018-01-14T10:36:23.691Z,-0.62
2018-01-14T10:37:23.777Z,-0.79
2018-01-14T10:38:23.934Z,-0.77
2018-01-14T10:39:23.703Z,-0.85
2018-01-14T10:40:23.911Z,-0.74
2018-01-14T10:41:23.687Z,-0.75
2018-01-14T10:42:27.327Z,-0.74
2018-01-14T10:43:23.839Z,-0.68
2018-01-14T10:44:23.754Z,-0.71
2018-01-14T10:45:25.751Z,-0.72
2018-01-14T10:46:24.468Z,-0.71
2018-01-14T10:47:23.740Z,-0.83
2018-01-14T10:48:23.706Z,-0.76
2018-01-14T10:49:26.680Z,-0.84
2018-01-14T10:50:24.265Z,-0.85
2018-01-14T10:51:23.789Z,-0.74
2018-01-14T10:52:23.779Z,-0.75
2018-01-14T10:53:23.667Z,-0.64
2018-01-14T10:54:23.737Z,-0.78
2018-01-14T10:55:23.726Z,-0.73
2018-01-14T10:56:23.774Z,-0.75
2018-01-14T10:57:23.708Z,-0.74
2018-01-14T10:58:23.644Z,-0.67
2018-01-14T10:59:27.541Z,-0.7
2018-01-14T11:00:24.327Z,-0.68
2018-01-14T11:01:23.810Z,-0.7
2018-01-14T11:02:23.823Z,-0.75
2018-01-14T11:03:24.387Z,-0.65
2018-01-14T11:04:23.686Z,-0.62
2018-01-14T11:05:35.164Z,-0.69
2018-01-14T11:06:25.443Z,-0.77
2018-01-14T11:07:13.259Z,-0.58
2018-01-14T11:08:16.027Z,-0.7
2018-01-14T11:09:16.536Z,-0.8
2018-01-14T11:10:13.045Z,-0.85
2018-01-14T11:11:13.011Z,-0.75
2018-01-14T11:12:14.882Z,-0.68
2018-01-14T11:13:13.404Z,-0.76
2018-01-14T11:14:13.094Z,-0.72
2018-01-14T11:15:13.010Z,-0.71
2018-01-14T11:16:13.047Z,-0.82
2018-01-14T11:17:13.032Z,-0.67
2018-01-14T11:18:13.221Z,-0.91
2018-01-14T11:19:12.995Z,-0.8
2018-01-14T11:20:13.131Z,-0.92
2018-01-14T11:21:13.727Z,-0.83
2018-01-14T11:22:13.036Z,-0.8
2018-01-14T11:23:13.130Z,-0.91
2018-01-14T11:24:13.329Z,-0.87
2018-01-14T11:25:13.210Z,-0.83
2018-01-14T11:26:13.114Z,-0.77
2018-01-14T11:27:13.145Z,-0.69
2018-01-14T11:28:13.110Z,-0.91
2018-01-14T11:29:13.298Z,-0.86
2018-01-14T11:30:13.080Z,-0.76
2018-01-14T11:31:13.066Z,-0.78
2018-01-14T11:32:13.129Z,-0.85
2018-01-14T11:33:13.144Z,-0.82
2018-01-14T11:34:13.125Z,-0.76
2018-01-14T11:35:13.103Z,-0.8
2018-01-14T11:36:13.151Z,-0.81
2018-01-14T11:37:13.157Z,-0.79
2018-01-14T11:38:13.099Z,-0.84
2018-01-14T11:39:13.096Z,-0.78
2018-01-14T11:40:13.149Z,-0.75
2018-01-14T11:41:13.148Z,-0.71
2018-01-14T11:42:13.167Z,-0.76
2018-01-14T11:43:13.288Z,-0.81
2018-01-14T11:44:13.316Z,-0.76
2018-01-14T11:45:13.349Z,-0.71
2018-01-14T11:46:13.019Z,-0.71
2018-01-14T11:47:13.028Z,-0.69
2018-01-14T11:48:13.164Z,-0.77
2018-01-14T11:49:13.095Z,-0.83
2018-01-14T11:50:13.253Z,-0.83
2018-01-14T11:51:13.216Z,-0.84
2018-01-14T11:52:13.133Z,-0.89
2018-01-14T11:53:13.152Z,-0.83
2018-01-14T11:54:13.183Z,-0.74
2018-01-14T11:55:13.199Z,-0.72
2018-01-14T11:56:13.365Z,-0.64
2018-01-14T11:57:13.144Z,-0.69
2018-01-14T11:58:13.082Z,-0.68
2018-01-14T11:59:13.136Z,-0.63
2018-01-14T12:00:13.192Z,-0.73
2018-01-14T12:01:13.912Z,-0.71
2018-01-14T12:02:13.228Z,-0.7
2018-01-14T12:03:12.988Z,-0.69
2018-01-14T12:04:13.052Z,-0.66
2018-01-14T12:05:13.168Z,-0.71
2018-01-14T12:06:13.111Z,-0.67
2018-01-14T12:07:13.197Z,-0.69
2018-01-14T12:08:13.158Z,-0.76
2018-01-14T12:09:13.133Z,-0.76
2018-01-14T12:10:13.236Z,-0.78
2018-01-14T12:11:13.373Z,-0.88
2018-01-14T12:12:13.092Z,-0.81
2018-01-14T12:14:04.894Z,-0.75
2018-01-14T12:15:04.885Z,-0.81
2018-01-14T12:16:04.893Z,-0.84
2018-01-14T12:17:04.726Z,-0.71
2018-01-14T12:18:04.794Z,-0.89
2018-01-14T12:19:04.750Z,-0.8
2018-01-14T12:20:04.841Z,-0.82
2018-01-14T12:21:04.770Z,-0.74
2018-01-14T12:22:04.805Z,-0.9
2018-01-14T12:23:04.855Z,-0.85
2018-01-14T12:24:04.858Z,-0.93
2018-01-14T12:25:04.673Z,-0.89
2018-01-14T12:26:04.741Z,-0.79
2018-01-14T12:27:04.839Z,-0.81
2018-01-14T12:28:04.877Z,-0.9
2018-01-14T12:29:04.893Z,-0.82
2018-01-14T12:30:04.768Z,-0.87
2018-01-14T12:31:04.957Z,-0.83
2018-01-14T12:32:04.904Z,-0.79
2018-01-14T12:33:04.904Z,-0.81
2018-01-14T12:34:04.855Z,-0.84
2018-01-14T12:35:04.786Z,-0.76
2018-01-14T12:36:04.864Z,-0.75
2018-01-14T12:37:05.006Z,-0.8
2018-01-14T12:38:04.782Z,-0.81
2018-01-14T12:39:04.795Z,-0.76
2018-01-14T12:40:04.839Z,-0.67
2018-01-14T12:41:04.782Z,-0.69
2018-01-14T12:42:04.896Z,-0.74
2018-01-14T12:43:04.914Z,-0.67
2018-01-14T12:44:04.801Z,-0.78
2018-01-14T12:45:04.799Z,-0.78
2018-01-14T12:46:04.932Z,-0.71
2018-01-14T12:47:04.772Z,-0.64
2018-01-14T12:48:05.026Z,-0.86
2018-01-14T12:49:04.926Z,-0.8
2018-01-14T12:50:04.748Z,-0.73
2018-01-14T12:51:04.918Z,-0.71
2018-01-14T12:52:04.838Z,-0.8
2018-01-14T12:53:04.880Z,-0.71
2018-01-14T12:54:04.934Z,-0.77
2018-01-14T12:55:04.939Z,-0.85
2018-01-14T12:56:04.888Z,-0.87
2018-01-14T12:57:04.834Z,-0.79
2018-01-14T12:58:04.906Z,-0.78
2018-01-14T12:59:04.905Z,-0.88
2018-01-14T13:00:04.810Z,-0.88
2018-01-14T13:01:04.967Z,-1.08
2018-01-14T13:02:04.868Z,-1.01
2018-01-14T13:03:04.886Z,-1.14
2018-01-14T13:04:04.804Z,-1.13
2018-01-14T13:05:04.937Z,-1.22
2018-01-14T13:06:05.038Z,-1.08
2018-01-14T13:07:04.941Z,-1.08
2018-01-14T13:08:04.958Z,-1.06
2018-01-14T13:09:04.992Z,-1.09
2018-01-14T13:10:04.982Z,-1.1
2018-01-14T13:11:04.830Z,-1.01
2018-01-14T13:12:04.881Z,-0.97
2018-01-14T13:13:04.904Z,-0.94